createdAt,value
2019-01-27T00:00:24.348Z,95.09
2019-01-27T00:01:24.318Z,94.88
2019-01-27T00:02:24.357Z,95.09
2019-01-27T00:03:24.252Z,94.88
2019-01-27T00:04:24.218Z,95.09
2019-01-27T00:05:24.183Z,94.42
2019-01-27T00:06:24.207Z,94.57
2019-01-27T00:07:24.172Z,94.57
2019-01-27T00:08:24.084Z,95.09
2019-01-27T00:09:24.047Z,94.46
2019-01-27T00:10:24.018Z,94.88
2019-01-27T00:11:24.029Z,94.67
2019-01-27T00:12:23.987Z,94.67
2019-01-27T00:13:23.912Z,94.15
2019-01-27T00:14:23.878Z,94.46
2019-01-27T00:15:23.851Z,94.26
2019-01-27T00:16:23.866Z,94.05
2019-01-27T00:17:23.780Z,94.36
2019-01-27T00:18:23.755Z,94.15
2019-01-27T00:19:23.752Z,94.26
2019-01-27T00:20:23.682Z,94.67
2019-01-27T00:21:23.699Z,94.46
2019-01-27T00:22:23.612Z,94.15
2019-01-27T00:23:23.633Z,94.36
2019-01-27T00:24:23.545Z,94.26
2019-01-27T00:25:23.510Z,94.46
2019-01-27T00:26:23.518Z,94.26
2019-01-27T00:27:23.489Z,94.57
2019-01-27T00:28:23.448Z,94.46
2019-01-27T00:29:23.423Z,94.46
2019-01-27T00:30:23.344Z,94.36
2019-01-27T00:31:23.310Z,94.46
2019-01-27T00:32:23.325Z,94.46
2019-01-27T00:33:23.827Z,94.15
2019-01-27T00:34:23.209Z,93.95
2019-01-27T00:35:23.177Z,93.88
2019-01-27T00:36:23.184Z,93.99
2019-01-27T00:37:23.161Z,93.84
2019-01-27T00:38:23.073Z,93.99
2019-01-27T00:39:23.041Z,93.84
2019-01-27T00:40:23.011Z,93.78
2019-01-27T00:41:23.734Z,94.40
2019-01-27T00:42:23.010Z,93.95
2019-01-27T00:43:22.971Z,94.30
2019-01-27T00:44:22.882Z,94.40
2019-01-27T00:45:22.843Z,94.30
2019-01-27T00:46:22.937Z,94.30
2019-01-27T00:47:22.779Z,94.46
2019-01-27T00:48:22.787Z,94.46
2019-01-27T00:49:23.328Z,94.36
2019-01-27T00:50:22.714Z,94.51
2019-01-27T00:51:22.687Z,94.26
2019-01-27T00:52:22.606Z,94.51
2019-01-27T00:53:22.574Z,93.99
2019-01-27T00:54:22.539Z,93.99
2019-01-27T00:55:22.573Z,93.78
2019-01-27T00:56:22.472Z,93.63
2019-01-27T00:57:22.440Z,93.99
2019-01-27T00:58:22.400Z,93.99
2019-01-27T00:59:22.425Z,93.57
2019-01-27T01:00:22.357Z,93.37
2019-01-27T01:01:22.343Z,93.78
2019-01-27T01:02:22.277Z,93.99
2019-01-27T01:03:22.273Z,93.57
2019-01-27T01:04:22.201Z,93.68
2019-01-27T01:05:22.169Z,94.36
2019-01-27T01:06:24.236Z,93.57
2019-01-27T01:07:22.166Z,93.95
2019-01-27T01:08:22.066Z,93.78
2019-01-27T01:09:22.029Z,93.68
2019-01-27T01:10:22.006Z,93.26
2019-01-27T01:11:21.964Z,93.68
2019-01-27T01:12:21.997Z,93.57
2019-01-27T01:13:21.901Z,93.26
2019-01-27T01:14:21.872Z,93.57
2019-01-27T01:15:21.870Z,93.57
2019-01-27T01:16:21.796Z,93.57
2019-01-27T01:17:21.808Z,93.47
2019-01-27T01:18:21.774Z,93.22
2019-01-27T01:19:21.739Z,93.26
2019-01-27T01:20:22.331Z,93.26
2019-01-27T01:21:21.628Z,93.37
2019-01-27T01:22:21.599Z,92.74
2019-01-27T01:23:21.558Z,92.80
2019-01-27T01:24:21.577Z,92.43
2019-01-27T01:25:21.546Z,92.38
2019-01-27T01:26:21.459Z,92.69
2019-01-27T01:27:21.426Z,92.90
2019-01-27T01:28:21.408Z,92.80
2019-01-27T01:29:21.404Z,92.84
2019-01-27T01:30:21.377Z,92.69
2019-01-27T01:31:21.289Z,92.63
2019-01-27T01:32:21.258Z,93.01
2019-01-27T01:33:21.243Z,92.80
2019-01-27T01:34:21.189Z,93.16
2019-01-27T01:35:21.203Z,92.94
2019-01-27T01:36:21.123Z,92.69
2019-01-27T01:37:21.090Z,92.63
2019-01-27T01:38:21.055Z,92.90
2019-01-27T01:39:21.388Z,92.90
2019-01-27T01:40:20.992Z,93.16
2019-01-27T01:41:20.999Z,93.12
2019-01-27T01:42:20.934Z,92.80
2019-01-27T01:43:20.904Z,92.90
2019-01-27T01:44:20.862Z,92.84
2019-01-27T01:45:20.816Z,93.05
2019-01-27T01:46:20.838Z,92.90
2019-01-27T01:47:20.756Z,92.90
2019-01-27T01:48:20.719Z,92.59
2019-01-27T01:49:20.682Z,92.69
2019-01-27T01:50:20.666Z,92.80
2019-01-27T01:51:20.658Z,92.84
2019-01-27T01:52:20.586Z,92.94
2019-01-27T01:53:22.242Z,92.90
2019-01-27T01:54:20.519Z,92.80
2019-01-27T01:55:20.485Z,92.84
2019-01-27T01:56:20.447Z,92.69
2019-01-27T01:57:20.416Z,92.80
2019-01-27T01:58:20.444Z,93.22
2019-01-27T01:59:20.344Z,92.80
2019-01-27T02:00:20.313Z,92.63
2019-01-27T02:01:20.278Z,92.49
2019-01-27T02:02:20.288Z,92.43
2019-01-27T02:03:20.218Z,92.74
2019-01-27T02:04:20.179Z,92.69
2019-01-27T02:05:20.143Z,92.32
2019-01-27T02:06:20.159Z,92.43
2019-01-27T02:07:20.087Z,92.43
2019-01-27T02:08:20.160Z,92.43
2019-01-27T02:09:20.013Z,92.38
2019-01-27T02:10:19.979Z,92.22
2019-01-27T02:11:19.943Z,92.84
2019-01-27T02:12:19.974Z,92.74
2019-01-27T02:13:19.917Z,92.32
2019-01-27T02:14:19.842Z,92.80
2019-01-27T02:15:19.813Z,92.11
2019-01-27T02:16:19.782Z,92.22
2019-01-27T02:17:19.809Z,92.63
2019-01-27T02:18:19.709Z,92.43
2019-01-27T02:19:19.671Z,92.43
2019-01-27T02:20:19.644Z,92.32
2019-01-27T02:21:19.657Z,92.74
2019-01-27T02:22:19.571Z,92.53
2019-01-27T02:23:19.538Z,92.53
2019-01-27T02:24:19.535Z,92.63
2019-01-27T02:25:19.474Z,92.74
2019-01-27T02:26:19.483Z,92.38
2019-01-27T02:27:19.406Z,92.63
2019-01-27T02:28:19.420Z,92.63
2019-01-27T02:29:19.340Z,92.63
2019-01-27T02:30:19.315Z,92.63
2019-01-27T02:31:19.271Z,92.43
2019-01-27T02:32:19.238Z,92.32
2019-01-27T02:33:19.247Z,92.43
2019-01-27T02:34:19.215Z,92.84
2019-01-27T02:35:19.135Z,92.32
2019-01-27T02:36:19.103Z,92.22
2019-01-27T02:37:19.096Z,92.43
2019-01-27T02:38:19.034Z,92.36
2019-01-27T02:39:19.044Z,92.22
2019-01-27T02:40:18.968Z,92.32
2019-01-27T02:41:18.933Z,92.47
2019-01-27T02:42:18.908Z,92.53
2019-01-27T02:43:18.870Z,92.47
2019-01-27T02:44:18.878Z,92.68
2019-01-27T02:45:18.801Z,92.57
2019-01-27T02:46:18.777Z,92.26
2019-01-27T02:47:18.730Z,92.26
2019-01-27T02:48:18.696Z,92.68
2019-01-27T02:49:18.707Z,93.10
2019-01-27T02:50:18.681Z,92.36
2019-01-27T02:51:19.362Z,92.26
2019-01-27T02:52:18.560Z,92.57
2019-01-27T02:53:18.600Z,92.36
2019-01-27T02:54:18.493Z,93.10
2019-01-27T02:55:18.506Z,92.78
2019-01-27T02:56:18.465Z,92.47
2019-01-27T02:57:18.396Z,92.99
2019-01-27T02:58:18.359Z,92.99
2019-01-27T02:59:18.326Z,93.10
2019-01-27T03:00:18.357Z,92.68
2019-01-27T03:01:18.323Z,92.57
2019-01-27T03:02:18.768Z,92.68
2019-01-27T03:03:18.229Z,92.26
2019-01-27T03:04:18.157Z,92.16
2019-01-27T03:05:18.123Z,92.88
2019-01-27T03:06:18.130Z,92.78
2019-01-27T03:07:18.061Z,92.16
2019-01-27T03:08:18.018Z,92.16
2019-01-27T03:09:17.993Z,92.47
2019-01-27T03:10:18.021Z,92.88
2019-01-27T03:11:17.961Z,92.57
2019-01-27T03:12:17.974Z,92.47
2019-01-27T03:13:18.848Z,92.47
2019-01-27T03:14:17.873Z,92.47
2019-01-27T03:15:18.344Z,92.68
2019-01-27T03:16:17.752Z,92.57
2019-01-27T03:17:18.753Z,92.78
2019-01-27T03:18:17.689Z,92.78
2019-01-27T03:19:17.645Z,92.88
2019-01-27T03:20:17.617Z,92.78
2019-01-27T03:21:17.593Z,92.78
2019-01-27T03:22:17.620Z,92.68
2019-01-27T03:23:18.342Z,92.16
2019-01-27T03:24:17.477Z,92.68
2019-01-27T03:25:17.445Z,92.68
2019-01-27T03:26:17.411Z,92.68
2019-01-27T03:27:17.426Z,92.61
2019-01-27T03:28:17.399Z,92.78
2019-01-27T03:29:17.309Z,92.68
2019-01-27T03:30:17.296Z,92.99
2019-01-27T03:31:17.244Z,92.82
2019-01-27T03:32:17.248Z,92.72
2019-01-27T03:33:17.404Z,92.72
2019-01-27T03:34:17.184Z,92.61
2019-01-27T03:35:17.112Z,92.30
2019-01-27T03:36:17.070Z,92.41
2019-01-27T03:37:17.041Z,92.20
2019-01-27T03:38:17.005Z,92.61
2019-01-27T03:39:17.013Z,92.26
2019-01-27T03:40:16.957Z,92.20
2019-01-27T03:41:16.900Z,92.30
2019-01-27T03:42:16.909Z,92.30
2019-01-27T03:43:16.837Z,92.72
2019-01-27T03:44:17.344Z,92.93
2019-01-27T03:45:16.827Z,93.03
2019-01-27T03:46:16.730Z,92.82
2019-01-27T03:47:16.695Z,93.14
2019-01-27T03:48:16.666Z,93.29
2019-01-27T03:49:16.631Z,93.14
2019-01-27T03:50:16.638Z,93.14
2019-01-27T03:51:16.557Z,93.07
2019-01-27T03:52:17.356Z,92.51
2019-01-27T03:53:16.493Z,93.14
2019-01-27T03:54:16.461Z,93.14
2019-01-27T03:55:16.489Z,93.07
2019-01-27T03:56:16.388Z,92.82
2019-01-27T03:57:16.419Z,92.82
2019-01-27T03:58:16.320Z,93.03
2019-01-27T03:59:16.289Z,93.03
2019-01-27T04:00:16.253Z,93.03
2019-01-27T04:01:16.218Z,93.03
2019-01-27T04:02:16.232Z,92.93
2019-01-27T04:03:16.188Z,92.82
2019-01-27T04:04:16.181Z,93.03
2019-01-27T04:05:16.084Z,93.18
2019-01-27T04:06:16.049Z,93.14
2019-01-27T04:07:16.074Z,92.93
2019-01-27T04:08:15.981Z,92.97
2019-01-27T04:09:15.989Z,93.03
2019-01-27T04:10:15.910Z,93.14
2019-01-27T04:11:15.876Z,92.51
2019-01-27T04:12:15.875Z,93.03
2019-01-27T04:13:15.825Z,93.14
2019-01-27T04:14:15.820Z,92.93
2019-01-27T04:15:15.740Z,92.82
2019-01-27T04:16:15.709Z,92.61
2019-01-27T04:17:15.725Z,93.14
2019-01-27T04:18:16.357Z,93.14
2019-01-27T04:19:15.670Z,92.47
2019-01-27T04:20:15.576Z,92.61
2019-01-27T04:21:15.537Z,92.41
2019-01-27T04:22:15.553Z,92.51
2019-01-27T04:23:15.522Z,92.61
2019-01-27T04:24:15.490Z,92.51
2019-01-27T04:25:15.450Z,92.47
2019-01-27T04:26:16.350Z,92.72
2019-01-27T04:27:15.362Z,92.16
2019-01-27T04:28:15.299Z,91.89
2019-01-27T04:29:15.305Z,92.57
2019-01-27T04:30:15.228Z,92.10
2019-01-27T04:31:15.193Z,92.05
2019-01-27T04:32:15.202Z,91.89
2019-01-27T04:33:15.136Z,92.05
2019-01-27T04:34:15.407Z,91.89
2019-01-27T04:35:15.059Z,91.89
2019-01-27T04:36:15.080Z,92.10
2019-01-27T04:37:14.988Z,92.30
2019-01-27T04:38:14.956Z,92.61
2019-01-27T04:39:15.399Z,92.41
2019-01-27T04:40:14.890Z,92.93
2019-01-27T04:41:14.900Z,92.41
2019-01-27T04:42:14.822Z,93.03
2019-01-27T04:43:14.797Z,92.93
2019-01-27T04:44:14.761Z,92.61
2019-01-27T04:45:14.719Z,92.72
2019-01-27T04:46:14.926Z,92.72
2019-01-27T04:47:14.651Z,92.72
2019-01-27T04:48:14.625Z,92.82
2019-01-27T04:49:14.582Z,92.68
2019-01-27T04:50:14.548Z,92.88
2019-01-27T04:51:14.920Z,91.99
2019-01-27T04:52:14.479Z,92.16
2019-01-27T04:53:14.454Z,92.41
2019-01-27T04:54:14.421Z,92.61
2019-01-27T04:55:14.378Z,92.93
2019-01-27T04:56:14.404Z,92.82
2019-01-27T04:57:14.309Z,92.93
2019-01-27T04:58:14.348Z,91.78
2019-01-27T04:59:14.242Z,91.99
2019-01-27T05:00:14.206Z,92.51
2019-01-27T05:01:14.214Z,92.16
2019-01-27T05:02:21.234Z,92.10
2019-01-27T05:03:14.113Z,92.41
2019-01-27T05:04:14.119Z,92.30
2019-01-27T05:05:14.040Z,92.30
2019-01-27T05:06:14.002Z,92.41
2019-01-27T05:07:13.969Z,92.30
2019-01-27T05:08:13.942Z,91.89
2019-01-27T05:09:13.952Z,92.16
2019-01-27T05:10:14.383Z,92.20
2019-01-27T05:11:13.837Z,92.30
2019-01-27T05:12:13.846Z,92.20
2019-01-27T05:13:13.774Z,92.30
2019-01-27T05:14:13.742Z,92.20
2019-01-27T05:15:13.748Z,91.89
2019-01-27T05:16:13.668Z,91.99
2019-01-27T05:17:13.634Z,92.61
2019-01-27T05:18:13.716Z,93.03
2019-01-27T05:19:13.567Z,92.10
2019-01-27T05:20:13.533Z,92.20
2019-01-27T05:21:14.380Z,92.36
2019-01-27T05:22:13.464Z,91.68
2019-01-27T05:23:13.482Z,91.47
2019-01-27T05:24:13.429Z,91.89
2019-01-27T05:25:13.410Z,91.78
2019-01-27T05:26:13.893Z,91.89
2019-01-27T05:27:13.292Z,91.64
2019-01-27T05:28:13.262Z,91.47
2019-01-27T05:29:13.285Z,91.47
2019-01-27T05:30:13.877Z,91.99
2019-01-27T05:31:13.161Z,91.68
2019-01-27T05:32:13.122Z,91.99
2019-01-27T05:33:13.090Z,91.47
2019-01-27T05:34:13.196Z,91.68
2019-01-27T05:35:13.019Z,91.78
2019-01-27T05:36:12.986Z,92.30
2019-01-27T05:37:12.951Z,92.03
2019-01-27T05:38:12.920Z,92.76
2019-01-27T05:39:12.928Z,92.72
2019-01-27T05:40:12.854Z,92.66
2019-01-27T05:41:12.864Z,93.07
2019-01-27T05:42:12.783Z,92.86
2019-01-27T05:43:12.751Z,93.07
2019-01-27T05:44:12.788Z,92.93
2019-01-27T05:45:13.287Z,92.97
2019-01-27T05:46:12.647Z,93.07
2019-01-27T05:47:12.612Z,92.14
2019-01-27T05:48:12.585Z,92.66
2019-01-27T05:49:12.576Z,92.55
2019-01-27T05:50:12.553Z,92.10
2019-01-27T05:51:13.380Z,92.93
2019-01-27T05:52:12.444Z,92.03
2019-01-27T05:53:12.450Z,92.76
2019-01-27T05:54:12.378Z,92.55
2019-01-27T05:55:12.342Z,92.24
2019-01-27T05:56:12.454Z,92.14
2019-01-27T05:57:12.271Z,92.03
2019-01-27T05:58:12.238Z,91.93
2019-01-27T05:59:12.943Z,92.20
2019-01-27T06:00:12.168Z,92.14
2019-01-27T06:01:12.193Z,92.55
2019-01-27T06:02:12.888Z,92.55
2019-01-27T06:03:12.067Z,92.55
2019-01-27T06:04:12.074Z,93.07
2019-01-27T06:05:11.998Z,92.55
2019-01-27T06:06:11.967Z,92.66
2019-01-27T06:07:12.436Z,92.97
2019-01-27T06:08:11.897Z,92.76
2019-01-27T06:09:11.915Z,92.55
2019-01-27T06:10:11.831Z,92.86
2019-01-27T06:11:12.389Z,92.66
2019-01-27T06:12:11.806Z,92.76
2019-01-27T06:13:11.725Z,92.55
2019-01-27T06:14:11.697Z,92.55
2019-01-27T06:15:14.387Z,92.76
2019-01-27T06:16:11.621Z,92.66
2019-01-27T06:17:11.591Z,92.66
2019-01-27T06:18:11.563Z,92.66
2019-01-27T06:19:11.577Z,92.86
2019-01-27T06:20:11.488Z,92.66
2019-01-27T06:21:11.459Z,92.66
2019-01-27T06:22:11.420Z,92.45
2019-01-27T06:23:11.404Z,92.91
2019-01-27T06:24:11.394Z,92.66
2019-01-27T06:25:11.437Z,92.76
2019-01-27T06:26:11.289Z,92.39
2019-01-27T06:27:11.253Z,93.18
2019-01-27T06:28:11.224Z,92.76
2019-01-27T06:29:11.230Z,92.60
2019-01-27T06:30:11.148Z,92.55
2019-01-27T06:31:11.181Z,93.01
2019-01-27T06:32:11.095Z,92.97
2019-01-27T06:33:11.043Z,93.43
2019-01-27T06:34:11.015Z,93.07
2019-01-27T06:35:10.976Z,92.76
2019-01-27T06:36:10.984Z,92.97
2019-01-27T06:37:10.911Z,92.86
2019-01-27T06:38:10.895Z,93.12
2019-01-27T06:39:10.854Z,93.18
2019-01-27T06:40:10.850Z,93.07
2019-01-27T06:41:10.867Z,93.18
2019-01-27T06:42:11.385Z,93.07
2019-01-27T06:43:10.712Z,92.60
2019-01-27T06:44:10.676Z,93.54
2019-01-27T06:45:10.698Z,93.54
2019-01-27T06:46:10.621Z,93.33
2019-01-27T06:47:10.574Z,93.18
2019-01-27T06:48:10.545Z,92.66
2019-01-27T06:49:10.532Z,93.49
2019-01-27T06:50:10.519Z,93.12
2019-01-27T06:51:11.390Z,93.18
2019-01-27T06:52:10.395Z,93.18
2019-01-27T06:53:10.363Z,93.07
2019-01-27T06:54:10.332Z,93.23
2019-01-27T06:55:10.339Z,93.07
2019-01-27T06:56:10.304Z,93.12
2019-01-27T06:57:10.225Z,93.29
2019-01-27T06:58:10.205Z,93.07
2019-01-27T06:59:10.163Z,92.55
2019-01-27T07:00:10.124Z,92.80
2019-01-27T07:01:10.134Z,93.18
2019-01-27T07:02:10.058Z,92.97
2019-01-27T07:03:10.046Z,93.18
2019-01-27T07:04:10.001Z,93.07
2019-01-27T07:05:09.960Z,92.86
2019-01-27T07:06:09.964Z,92.93
2019-01-27T07:07:09.892Z,93.18
2019-01-27T07:08:09.865Z,93.03
2019-01-27T07:09:09.824Z,92.93
2019-01-27T07:10:09.836Z,92.76
2019-01-27T07:11:09.799Z,92.93
2019-01-27T07:12:09.713Z,92.35
2019-01-27T07:13:09.682Z,92.61
2019-01-27T07:14:09.645Z,92.72
2019-01-27T07:15:09.659Z,92.72
2019-01-27T07:16:09.579Z,92.72
2019-01-27T07:17:10.387Z,92.61
2019-01-27T07:18:09.573Z,91.99
2019-01-27T07:19:09.526Z,91.89
2019-01-27T07:20:09.449Z,92.41
2019-01-27T07:21:09.447Z,91.78
2019-01-27T07:22:09.887Z,92.16
2019-01-27T07:23:09.392Z,92.20
2019-01-27T07:24:09.320Z,91.95
2019-01-27T07:25:09.345Z,91.47
2019-01-27T07:26:09.242Z,91.85
2019-01-27T07:27:09.897Z,91.85
2019-01-27T07:28:09.179Z,91.27
2019-01-27T07:29:09.141Z,91.85
2019-01-27T07:30:09.151Z,91.58
2019-01-27T07:31:09.074Z,91.89
2019-01-27T07:32:09.036Z,91.74
2019-01-27T07:33:09.010Z,91.85
2019-01-27T07:34:08.969Z,91.33
2019-01-27T07:35:08.984Z,91.02
2019-01-27T07:36:08.913Z,91.22
2019-01-27T07:37:08.913Z,91.53
2019-01-27T07:38:08.848Z,91.43
2019-01-27T07:39:08.801Z,91.12
2019-01-27T07:40:08.771Z,91.12
2019-01-27T07:41:08.739Z,91.22
2019-01-27T07:42:08.754Z,91.43
2019-01-27T07:43:08.673Z,90.91
2019-01-27T07:44:08.634Z,91.43
2019-01-27T07:45:08.600Z,91.28
2019-01-27T07:46:08.568Z,91.02
2019-01-27T07:47:08.589Z,91.02
2019-01-27T07:48:08.543Z,91.43
2019-01-27T07:49:08.466Z,91.33
2019-01-27T07:50:08.441Z,91.43
2019-01-27T07:51:08.446Z,91.02
2019-01-27T07:52:08.363Z,91.39
2019-01-27T07:53:08.333Z,91.08
2019-01-27T07:54:08.343Z,91.33
2019-01-27T07:55:08.270Z,91.22
2019-01-27T07:56:08.232Z,91.33
2019-01-27T07:57:08.267Z,91.33
2019-01-27T07:58:08.858Z,91.33
2019-01-27T07:59:08.127Z,91.53
2019-01-27T08:00:08.148Z,91.49
2019-01-27T08:01:08.061Z,90.14
2019-01-27T08:02:08.084Z,90.45
2019-01-27T08:03:12.105Z,90.04
2019-01-27T08:04:08.049Z,90.52
2019-01-27T08:05:07.937Z,90.83
2019-01-27T08:06:07.890Z,89.69
2019-01-27T08:07:07.916Z,90.10
2019-01-27T08:08:07.831Z,89.37
2019-01-27T08:09:07.809Z,89.23
2019-01-27T08:10:07.763Z,88.61
2019-01-27T08:11:07.750Z,88.67
2019-01-27T08:12:07.748Z,88.20
2019-01-27T08:13:07.658Z,88.26
2019-01-27T08:14:07.689Z,88.05
2019-01-27T08:15:07.600Z,87.74
2019-01-27T08:16:07.573Z,88.01
2019-01-27T08:17:07.571Z,88.21
2019-01-27T08:18:07.493Z,87.80
2019-01-27T08:19:07.460Z,87.59
2019-01-27T08:20:07.427Z,87.28
2019-01-27T08:21:07.447Z,87.18
2019-01-27T08:22:07.364Z,87.49
2019-01-27T08:23:07.336Z,87.35
2019-01-27T08:24:07.347Z,87.18
2019-01-27T08:25:07.262Z,86.97
2019-01-27T08:26:07.229Z,87.28
2019-01-27T08:27:07.246Z,87.45
2019-01-27T08:28:07.166Z,87.24
2019-01-27T08:29:07.131Z,86.87
2019-01-27T08:30:07.098Z,87.28
2019-01-27T08:31:07.116Z,87.74
2019-01-27T08:32:07.076Z,87.74
2019-01-27T08:33:07.054Z,87.74
2019-01-27T08:34:06.978Z,87.95
2019-01-27T08:35:06.937Z,88.15
2019-01-27T08:36:06.908Z,88.67
2019-01-27T08:37:06.875Z,88.78
2019-01-27T08:38:06.883Z,88.78
2019-01-27T08:39:06.802Z,88.15
2019-01-27T08:40:06.780Z,88.11
2019-01-27T08:41:06.739Z,88.21
2019-01-27T08:42:06.849Z,87.90
2019-01-27T08:43:06.720Z,87.66
2019-01-27T08:44:07.401Z,87.24
2019-01-27T08:45:06.669Z,87.87
2019-01-27T08:46:06.583Z,87.18
2019-01-27T08:47:06.607Z,87.80
2019-01-27T08:48:06.514Z,87.55
2019-01-27T08:49:06.480Z,87.45
2019-01-27T08:50:06.485Z,87.76
2019-01-27T08:51:06.419Z,87.70
2019-01-27T08:52:06.427Z,87.97
2019-01-27T08:53:06.419Z,87.14
2019-01-27T08:54:06.353Z,86.93
2019-01-27T08:55:06.315Z,87.04
2019-01-27T08:56:06.271Z,87.14
2019-01-27T08:57:06.244Z,86.99
2019-01-27T08:58:06.184Z,86.99
2019-01-27T08:59:06.217Z,86.58
2019-01-27T09:00:06.138Z,86.79
2019-01-27T09:01:06.091Z,86.79
2019-01-27T09:02:06.809Z,86.47
2019-01-27T09:03:06.060Z,86.13
2019-01-27T09:04:06.008Z,86.02
2019-01-27T09:05:05.971Z,86.85
2019-01-27T09:06:05.968Z,86.23
2019-01-27T09:07:05.939Z,85.68
2019-01-27T09:08:06.409Z,85.68
2019-01-27T09:09:05.861Z,85.50
2019-01-27T09:10:05.804Z,85.61
2019-01-27T09:11:05.761Z,85.40
2019-01-27T09:12:05.736Z,85.61
2019-01-27T09:13:11.173Z,85.71
2019-01-27T09:14:05.668Z,85.40
2019-01-27T09:15:05.644Z,85.71
2019-01-27T09:16:05.629Z,85.71
2019-01-27T09:17:05.579Z,86.02
2019-01-27T09:18:05.604Z,85.82
2019-01-27T09:19:05.504Z,86.09
2019-01-27T09:20:05.517Z,85.61
2019-01-27T09:21:05.455Z,85.61
2019-01-27T09:22:05.466Z,85.50
2019-01-27T09:23:05.375Z,85.92
2019-01-27T09:24:05.940Z,85.82
2019-01-27T09:25:05.320Z,85.16
2019-01-27T09:26:05.285Z,85.88
2019-01-27T09:27:05.307Z,85.36
2019-01-27T09:28:05.217Z,85.47
2019-01-27T09:29:05.187Z,85.61
2019-01-27T09:30:05.160Z,85.57
2019-01-27T09:31:05.143Z,85.68
2019-01-27T09:32:05.130Z,84.50
2019-01-27T09:33:05.054Z,84.81
2019-01-27T09:34:05.036Z,84.50
2019-01-27T09:35:04.999Z,84.15
2019-01-27T09:36:04.962Z,83.53
2019-01-27T09:37:05.470Z,83.32
2019-01-27T09:38:04.915Z,82.90
2019-01-27T09:39:04.878Z,83.63
2019-01-27T09:40:04.831Z,83.59
2019-01-27T09:41:04.803Z,83.59
2019-01-27T09:42:04.865Z,82.62
2019-01-27T09:43:04.748Z,82.42
2019-01-27T09:44:04.751Z,81.80
2019-01-27T09:45:04.709Z,81.70
2019-01-27T09:46:07.752Z,82.00
2019-01-27T09:47:04.618Z,81.90
2019-01-27T09:48:04.589Z,82.21
2019-01-27T09:49:04.558Z,82.00
2019-01-27T09:50:04.543Z,81.90
2019-01-27T09:51:04.973Z,81.56
2019-01-27T09:52:04.463Z,81.28
2019-01-27T09:53:04.434Z,81.66
2019-01-27T09:54:04.474Z,81.76
2019-01-27T09:55:04.393Z,81.04
2019-01-27T09:56:04.367Z,81.04
2019-01-27T09:57:04.311Z,80.73
2019-01-27T09:58:04.331Z,80.83
2019-01-27T09:59:04.243Z,81.66
2019-01-27T10:00:04.211Z,81.24
2019-01-27T10:01:04.198Z,80.83
2019-01-27T10:02:04.169Z,81.04
2019-01-27T10:03:04.174Z,80.73
2019-01-27T10:04:04.923Z,81.04
2019-01-27T10:05:04.079Z,81.14
2019-01-27T10:06:04.024Z,81.35
2019-01-27T10:07:04.141Z,81.07
2019-01-27T10:08:03.954Z,81.76
2019-01-27T10:09:03.940Z,81.70
2019-01-27T10:10:03.915Z,81.76
2019-01-27T10:11:03.941Z,82.10
2019-01-27T10:12:04.433Z,81.96
2019-01-27T10:13:04.422Z,82.69
2019-01-27T10:14:03.843Z,81.86
2019-01-27T10:15:03.779Z,81.96
2019-01-27T10:16:03.730Z,81.14
2019-01-27T10:17:03.734Z,81.04
2019-01-27T10:18:03.652Z,81.66
2019-01-27T10:19:03.668Z,81.86
2019-01-27T10:20:03.612Z,82.17
2019-01-27T10:21:03.566Z,82.07
2019-01-27T10:22:03.994Z,82.07
2019-01-27T10:23:03.604Z,81.76
2019-01-27T10:24:03.465Z,81.86
2019-01-27T10:25:03.444Z,82.10
2019-01-27T10:26:03.434Z,82.21
2019-01-27T10:27:03.433Z,82.28
2019-01-27T10:28:03.390Z,82.38
2019-01-27T10:29:03.306Z,83.04
2019-01-27T10:30:03.313Z,83.04
2019-01-27T10:31:03.246Z,83.76
2019-01-27T10:32:03.315Z,83.76
2019-01-27T10:33:03.178Z,85.52
2019-01-27T10:34:03.156Z,84.11
2019-01-27T10:35:03.114Z,84.00
2019-01-27T10:36:03.165Z,84.11
2019-01-27T10:37:03.055Z,85.14
2019-01-27T10:38:03.026Z,85.55
2019-01-27T10:39:03.045Z,84.21
2019-01-27T10:40:09.119Z,85.04
2019-01-27T10:41:02.946Z,85.45
2019-01-27T10:42:08.823Z,85.45
2019-01-27T10:43:02.882Z,85.49
2019-01-27T10:44:02.835Z,85.18
2019-01-27T10:45:02.867Z,85.49
2019-01-27T10:46:02.831Z,85.70
2019-01-27T10:47:02.775Z,85.45
2019-01-27T10:48:02.849Z,85.35
2019-01-27T10:49:02.687Z,85.24
2019-01-27T10:50:02.736Z,85.41
2019-01-27T10:51:02.679Z,85.52
2019-01-27T10:52:02.584Z,85.00
2019-01-27T10:53:02.551Z,85.27
2019-01-27T10:54:02.595Z,83.86
2019-01-27T10:55:09.327Z,84.13
2019-01-27T10:56:02.471Z,83.34
2019-01-27T10:57:02.424Z,84.17
2019-01-27T10:58:02.394Z,85.41
2019-01-27T10:59:02.412Z,85.31
2019-01-27T11:00:02.921Z,85.31
2019-01-27T11:01:02.315Z,85.52
2019-01-27T11:02:02.323Z,85.41
2019-01-27T11:03:02.257Z,85.83
2019-01-27T11:04:02.263Z,85.31
2019-01-27T11:05:02.231Z,85.64
2019-01-27T11:06:02.962Z,85.60
2019-01-27T11:07:02.226Z,84.94
2019-01-27T11:08:02.131Z,82.64
2019-01-27T11:09:02.104Z,81.98
2019-01-27T11:10:02.016Z,81.67
2019-01-27T11:11:01.983Z,81.49
2019-01-27T11:12:01.982Z,81.70
2019-01-27T11:13:01.925Z,79.88
2019-01-27T11:14:01.964Z,79.75
2019-01-27T11:15:01.866Z,80.57
2019-01-27T11:16:01.869Z,79.54
2019-01-27T11:17:01.830Z,80.36
2019-01-27T11:18:01.800Z,79.85
2019-01-27T11:19:01.781Z,80.23
2019-01-27T11:20:01.773Z,81.26
2019-01-27T11:21:01.681Z,80.13
2019-01-27T11:22:01.669Z,81.47
2019-01-27T11:23:01.637Z,81.92
2019-01-27T11:24:01.588Z,81.51
2019-01-27T11:25:01.597Z,82.23
2019-01-27T11:26:01.871Z,82.33
2019-01-27T11:27:08.330Z,83.50
2019-01-27T11:28:01.468Z,82.57
2019-01-27T11:29:01.481Z,82.84
2019-01-27T11:30:07.330Z,82.89
2019-01-27T11:31:01.427Z,83.67
2019-01-27T11:32:01.352Z,83.71
2019-01-27T11:33:02.567Z,82.10
2019-01-27T11:34:01.310Z,83.33
2019-01-27T11:35:01.295Z,83.58
2019-01-27T11:36:01.266Z,84.30
2019-01-27T11:37:01.195Z,84.09
2019-01-27T11:38:01.184Z,83.93
2019-01-27T11:39:01.134Z,85.06
2019-01-27T11:40:01.106Z,85.27
2019-01-27T11:41:01.115Z,85.17
2019-01-27T11:42:01.039Z,85.31
2019-01-27T11:43:01.011Z,85.99
2019-01-27T11:44:01.001Z,85.83
2019-01-27T11:45:00.950Z,85.41
2019-01-27T11:46:01.000Z,85.62
2019-01-27T11:47:00.888Z,86.24
2019-01-27T11:48:00.856Z,87.00
2019-01-27T11:49:01.429Z,87.83
2019-01-27T11:50:00.797Z,87.52
2019-01-27T11:51:00.808Z,87.52
2019-01-27T11:52:00.774Z,86.90
2019-01-27T11:53:00.743Z,88.04
2019-01-27T11:54:00.668Z,87.37
2019-01-27T11:55:00.642Z,87.41
2019-01-27T11:56:00.651Z,87.31
2019-01-27T11:57:00.595Z,87.83
2019-01-27T11:58:00.591Z,87.89
2019-01-27T11:59:00.512Z,87.37
2019-01-27T12:00:00.485Z,87.37
2019-01-27T12:01:00.473Z,86.76
2019-01-27T12:02:00.927Z,87.07
2019-01-27T12:03:00.524Z,87.07
2019-01-27T12:04:01.335Z,87.17
2019-01-27T12:05:00.322Z,86.10
2019-01-27T12:06:00.301Z,86.30
2019-01-27T12:07:00.263Z,86.71
2019-01-27T12:08:00.227Z,85.99
2019-01-27T12:09:00.287Z,86.82
2019-01-27T12:10:00.207Z,86.20
2019-01-27T12:11:00.133Z,85.85
2019-01-27T12:12:00.117Z,85.23
2019-01-27T12:13:00.997Z,85.09
2019-01-27T12:14:00.045Z,85.39
2019-01-27T12:15:00.248Z,84.99
2019-01-27T12:15:59.979Z,85.05
2019-01-27T12:16:59.958Z,84.06
2019-01-27T12:17:59.916Z,83.95
2019-01-27T12:18:59.882Z,84.16
2019-01-27T12:19:59.939Z,84.27
2019-01-27T12:20:59.836Z,83.85
2019-01-27T12:21:59.803Z,83.85
2019-01-27T12:22:59.778Z,84.27
2019-01-27T12:23:59.750Z,83.44
2019-01-27T12:24:59.773Z,84.06
2019-01-27T12:26:00.450Z,83.85
2019-01-27T12:26:59.640Z,83.54
2019-01-27T12:27:59.617Z,83.95
2019-01-27T12:28:59.600Z,83.71
2019-01-27T12:29:59.598Z,83.19
2019-01-27T12:30:59.554Z,82.37
2019-01-27T12:31:59.496Z,83.50
2019-01-27T12:32:59.463Z,82.78
2019-01-27T12:33:59.478Z,83.81
2019-01-27T12:34:59.395Z,82.78
2019-01-27T12:35:59.372Z,82.16
2019-01-27T12:36:59.346Z,82.23
2019-01-27T12:37:59.307Z,82.23
2019-01-27T12:38:59.316Z,82.02
2019-01-27T12:39:59.273Z,82.43
2019-01-27T12:40:59.208Z,82.02
2019-01-27T12:41:59.199Z,82.02
2019-01-27T12:42:59.191Z,82.23
2019-01-27T12:43:59.178Z,82.26
2019-01-27T12:44:59.136Z,82.16
2019-01-27T12:45:59.059Z,82.78
2019-01-27T12:46:59.035Z,83.64
2019-01-27T12:47:59.097Z,83.75
2019-01-27T12:48:59.073Z,83.71
2019-01-27T12:49:59.900Z,83.44
2019-01-27T12:50:58.938Z,84.06
2019-01-27T12:51:58.875Z,84.16